CheckWX is a tool to help pilots better visualize weather data.  It is not intended as a substitute for an official pre-flight weather briefing.

10:10:02 UTC

KLRJ METAR
Le Mars Municipal Airport
Le Mars, Iowa, USA
Current

15 mins ago

KLRJ 250955Z AUTO 14006KT 10SM BKN026 OVC030 17/16 A2998 RMK AO2
Observed
Aug-25 @ 09:55 UTC
Wind
  • 140° at 6 KTS
Visibility
10 SM
Flight Rules
MVFR
Cloud Levels
  • Broken at 2,600' AGL
  • Overcast at 3,000' AGL
Temperature
17°C / 63°F
Dewpoint
16°C / 61°F
Humidity
94%
Altimeter
29.98" Hg
Pressure
1015.22 hPa
Previous

35 mins ago

KLRJ 250935Z AUTO 14006KT 10SM OVC030 18/16 A2998 RMK AO2
Observed
Aug-25 @ 09:35 UTC
Wind
  • 140° at 6 KTS
Visibility
10 SM
Flight Rules
MVFR
Cloud Levels
  • Overcast at 3,000' AGL
Temperature
18°C / 64°F
Dewpoint
16°C / 61°F
Humidity
88%
Altimeter
29.98" Hg
Pressure
1015.22 hPa
Previous

55 mins ago

KLRJ 250915Z AUTO 16006G11KT 10SM OVC033 18/16 A2998 RMK AO2
Observed
Aug-25 @ 09:15 UTC
Wind
  • 160° at 6 KTS
  • Gusting to 11 KTS
Visibility
10 SM
Flight Rules
VFR
Cloud Levels
  • Overcast at 3,300' AGL
Temperature
18°C / 64°F
Dewpoint
16°C / 61°F
Humidity
88%
Altimeter
29.98" Hg
Pressure
1015.22 hPa